Siauliai, Lithuania

10:01 PM EEST on September 21, 2014 (GMT +0300)
Siauliai International | Change Station
CLOSE
Current Station
Airport
Location: Siauliai,
Elevation: 443 ft
Nearby Weather Stations

Elev 443 ft 55.89 °N, 23.40 °E | Updated 11 minutes ago

Mostly Cloudy
Mostly Cloudy
55 °F
Feels Like 55 °F
N
13
Wind Variable Wind from SSE

Today
High -- | Low -- °F
--% Chance of Precip.
Yesterday
High -- | Low -- °F
Precip. -- in
7:09 AM 7:28 PM
Waning Crescent, 6% visible
Pressure 29.71 in
Visibility 6.2 miles
Clouds Scattered Clouds 4900 ft
Mostly Cloudy 8600 ft
Dew Point 54 °F
Humidity 94%
Rainfall 0.00 in
Snow Depth Not available.
UV 0 out of 12
Pollen Not available.
Air Quality Not available.
Flu Activity Not available.
METAR EYSA 211850Z 16011KT 9999 SCT049 BKN086 13/12 Q1006

More Conditions Fewer Conditions

Pressure 29.71 in
Visibility 6.2 miles
Clouds Scattered Clouds 4900 ft
Mostly Cloudy 8600 ft
Dew Point 54 °F
Humidity 94%
Rainfall 0.00 in
Snow Depth Not available.
UV 0 out of 12
Pollen Not available.
Air Quality Not available.
Flu Activity Not available.
METAR EYSA 211850Z 16011KT 9999 SCT049 BKN086 13/12 Q1006

More Conditions Fewer Conditions

10-Day Weather Forecast

Almanac

Astronomy

Sep. 21, 2014 Rise Set
Actual Time 7:09 AM EEST 7:28 PM EEST
Civil Twilight 6:32 AM EEST 8:06 PM EEST
Nautical Twilight 5:47 AM EEST 8:50 PM EEST
Astronomical Twilight 5:00 AM EEST 9:37 PM EEST
Moon 4:02 AM EEST 6:12 PM EEST
Length of Visible Light 13h 33m
Length of Day
12h 19m
Tomorrow will be 4m 37s shorter.
Waning Crescent, 6% of the Moon is Illuminated
Today
Waning Crescent
Sep 24
New
Oct 1
First Quarter
Oct 8
Full
Oct 15
Last Quarter

Today's Extremes

Country Highs Country Lows

Community

WunderPhotos

Upload Photos

1,755,226 photos uploaded!

Nearby

Snow Depth

Not available.

Earthquake Activity

City Distance Mag. Time & Date
No recent earthquake activity has been reported nearby.
Minimum magnitude displayed is 2.5.

Coastal Water Temperatures

Place Temperature
No Stations Reporting

Nearby Weather Stations